createdAt,value
2022-10-23T17:42:22.209Z,69.59
2022-10-23T17:44:25.317Z,70.18
2022-10-23T17:46:30.397Z,70.18
2022-10-23T17:48:33.000Z,70.25
2022-10-23T17:50:35.515Z,70.08
2022-10-23T17:52:39.095Z,70.50
2022-10-23T17:54:43.455Z,69.99
2022-10-23T17:56:45.508Z,70.30
2022-10-23T17:58:47.699Z,70.03
2022-10-23T18:00:49.596Z,69.33
2022-10-23T18:02:55.596Z,70.45
2022-10-23T18:04:57.506Z,70.62
2022-10-23T18:06:59.413Z,70.99
2022-10-23T18:09:03.314Z,71.40
2022-10-23T18:11:05.496Z,71.97
2022-10-23T18:13:08.936Z,72.35
2022-10-23T18:15:11.157Z,74.08
2022-10-23T18:17:12.833Z,73.78
2022-10-23T18:19:17.141Z,74.67
2022-10-23T18:21:21.967Z,75.34
2022-10-23T18:23:23.895Z,75.17
2022-10-23T18:25:26.173Z,75.13
2022-10-23T18:27:29.424Z,75.02
2022-10-23T18:29:31.265Z,75.39
2022-10-23T18:31:33.761Z,75.59
2022-10-23T18:33:35.720Z,76.83
2022-10-23T18:35:37.460Z,78.63
2022-10-23T18:37:41.588Z,78.56
2022-10-23T18:39:44.439Z,78.44
2022-10-23T18:41:46.543Z,78.70
2022-10-23T18:43:48.301Z,79.62
2022-10-23T18:45:50.524Z,79.68
2022-10-23T18:47:52.550Z,80.33
2022-10-23T18:49:54.524Z,80.49
2022-10-23T18:51:58.355Z,80.04
2022-10-23T18:54:05.741Z,80.03
2022-10-23T18:56:08.458Z,80.66
2022-10-23T18:58:10.633Z,81.33
2022-10-23T19:00:13.118Z,82.02
2022-10-23T19:02:14.955Z,82.10
2022-10-23T19:04:18.407Z,81.83
2022-10-23T19:06:21.053Z,82.39
2022-10-23T19:08:22.915Z,82.07
2022-10-23T19:10:29.225Z,81.86
2022-10-23T19:12:31.275Z,81.83
2022-10-23T19:14:36.157Z,81.37
2022-10-23T19:17:02.492Z,81.64
2022-10-23T19:19:11.374Z,82.36
2022-10-23T19:21:13.829Z,82.57
2022-10-23T19:23:16.906Z,82.44
2022-10-23T19:25:26.257Z,82.88
2022-10-23T19:27:28.704Z,83.95
2022-10-23T19:29:31.390Z,83.61
2022-10-23T19:31:33.757Z,83.72
2022-10-23T19:33:39.270Z,84.73
2022-10-23T19:35:44.240Z,85.49
2022-10-23T19:37:46.872Z,86.19
2022-10-23T19:39:49.080Z,86.28
2022-10-23T19:41:51.887Z,87.05
2022-10-23T19:43:53.579Z,86.84
2022-10-23T19:45:55.637Z,86.88
2022-10-23T19:47:57.630Z,87.20
2022-10-23T19:49:59.358Z,87.22
2022-10-23T19:52:01.098Z,87.09
2022-10-23T19:54:03.828Z,87.44
2022-10-23T19:56:07.078Z,87.58
2022-10-23T19:58:09.150Z,86.11
2022-10-23T20:00:11.904Z,85.26
2022-10-23T20:02:13.910Z,86.68
2022-10-23T20:04:17.800Z,86.52
2022-10-23T20:06:23.812Z,87.06
2022-10-23T20:08:25.555Z,87.17
2022-10-23T20:10:28.137Z,87.66
2022-10-23T20:12:31.218Z,87.89
2022-10-23T20:14:33.601Z,88.40
2022-10-23T20:16:39.466Z,88.95
2022-10-23T20:18:41.729Z,89.15
2022-10-23T20:20:43.830Z,89.69
2022-10-23T20:22:52.063Z,89.58
2022-10-23T20:24:57.390Z,89.93
2022-10-23T20:26:59.347Z,90.26
2022-10-23T20:29:01.230Z,90.41
2022-10-23T20:31:10.901Z,90.20
2022-10-23T20:33:12.989Z,91.03
2022-10-23T20:35:14.932Z,90.59
2022-10-23T20:37:17.057Z,89.60
2022-10-23T20:39:21.942Z,89.00
2022-10-23T20:41:28.492Z,89.72
2022-10-23T20:43:32.359Z,89.56
2022-10-23T20:45:34.212Z,89.63
2022-10-23T20:47:35.879Z,90.18
2022-10-23T20:49:38.202Z,90.72
2022-10-23T20:51:41.960Z,91.33
2022-10-23T20:53:44.803Z,91.83
2022-10-23T20:55:46.886Z,91.82
2022-10-23T20:57:48.853Z,91.51
2022-10-23T20:59:50.531Z,91.52
2022-10-23T21:01:55.445Z,91.26
2022-10-23T21:04:00.171Z,91.54
2022-10-23T21:06:08.648Z,91.40
2022-10-23T21:08:10.561Z,91.71
2022-10-23T21:10:12.287Z,92.42
2022-10-23T21:12:13.961Z,91.58
2022-10-23T21:14:16.252Z,91.43
2022-10-23T21:16:24.781Z,90.44
2022-10-23T21:18:44.930Z,90.03
2022-10-23T21:20:47.780Z,91.06
2022-10-23T21:22:54.227Z,91.37
2022-10-23T21:24:59.719Z,91.88
2022-10-23T21:27:02.027Z,92.01
2022-10-23T21:29:17.905Z,92.70
2022-10-23T21:31:21.864Z,92.15
2022-10-23T21:33:24.337Z,91.28
2022-10-23T21:35:27.857Z,91.32
2022-10-23T21:37:31.813Z,92.38
2022-10-23T21:39:35.311Z,92.29
2022-10-23T21:41:38.524Z,92.73
2022-10-23T21:43:41.124Z,93.08
2022-10-23T21:45:42.991Z,93.14
2022-10-23T21:47:44.963Z,93.07
2022-10-23T21:49:46.784Z,92.93
2022-10-23T21:51:48.732Z,93.84
2022-10-23T21:53:52.862Z,94.12
2022-10-23T21:55:56.048Z,94.10
2022-10-23T21:58:01.822Z,94.53
2022-10-23T22:00:05.197Z,94.95
2022-10-23T22:02:07.032Z,94.86
2022-10-23T22:04:10.369Z,95.18
2022-10-23T22:06:15.803Z,94.63
2022-10-23T22:08:17.493Z,95.17
2022-10-23T22:10:19.547Z,95.16
2022-10-23T22:12:21.295Z,95.36
2022-10-23T22:14:23.308Z,94.50
2022-10-23T22:16:25.204Z,94.15
2022-10-23T22:18:26.922Z,93.65
2022-10-23T22:20:28.649Z,93.87
2022-10-23T22:22:30.520Z,93.49
2022-10-23T22:24:32.443Z,93.25
2022-10-23T22:26:40.007Z,93.34
2022-10-23T22:28:42.033Z,93.32
2022-10-23T22:30:43.855Z,92.59
2022-10-23T22:32:45.750Z,92.00
2022-10-23T22:34:52.733Z,92.92
2022-10-23T22:36:55.724Z,92.62
2022-10-23T22:38:57.506Z,92.78
2022-10-23T22:41:04.042Z,93.10
2022-10-23T22:43:05.784Z,93.25
2022-10-23T22:45:08.164Z,92.99
2022-10-23T22:47:10.103Z,93.47
2022-10-23T22:49:11.786Z,92.80
2022-10-23T22:51:16.077Z,93.29
2022-10-23T22:53:18.109Z,93.93
2022-10-23T22:55:19.793Z,94.84
2022-10-23T22:57:21.611Z,93.71
2022-10-23T22:59:23.745Z,93.10
2022-10-23T23:01:29.501Z,92.85
2022-10-23T23:03:31.690Z,92.00
2022-10-23T23:05:33.667Z,92.72
2022-10-23T23:07:35.522Z,93.77
2022-10-23T23:09:39.932Z,94.27
2022-10-23T23:11:51.315Z,94.99
2022-10-23T23:13:53.794Z,95.88
2022-10-23T23:15:55.616Z,95.73
2022-10-23T23:17:58.604Z,95.75
2022-10-23T23:20:00.233Z,95.76
2022-10-23T23:22:01.971Z,96.33
2022-10-23T23:24:04.035Z,96.53
2022-10-23T23:26:08.333Z,96.03
2022-10-23T23:28:14.604Z,96.00
2022-10-23T23:30:16.754Z,95.89
2022-10-23T23:32:18.864Z,95.57
2022-10-23T23:34:20.666Z,95.76
2022-10-23T23:36:25.372Z,95.98
2022-10-23T23:38:27.320Z,95.91
2022-10-23T23:40:28.998Z,95.80
2022-10-23T23:42:31.516Z,95.81
2022-10-23T23:44:33.470Z,95.20
2022-10-23T23:46:36.119Z,95.57
2022-10-23T23:48:38.297Z,96.00
2022-10-23T23:50:39.968Z,95.68
2022-10-23T23:52:41.749Z,96.10
2022-10-23T23:54:43.677Z,96.53
2022-10-23T23:56:45.388Z,96.43
2022-10-23T23:58:47.724Z,96.33
